Terminal Aerodrome Forecast
Issued by NWS Portland, OR

Home | Current Version | Previous Version | Text Only | Print | Product List | Glossary On
Versions: 1 2 3 4 5 6 7 8 9 10 11 12 13 14 15 16 17 18 19 20 21
000
FTUS46 KPQR 172339
TAFHIO
TAF
KHIO 172339Z 1800/1824 20008KT P6SM -RA BKN015 OVC040
     FM180400 28010KT P6SM -SHRA BKN025 BKN060
     FM181200 VRB02KT 5SM BR BKN015
     FM181800 VRB03KT P6SM SCT040=

USA.gov is the U.S. government's official web portal to all federal, state and local government web resources and services.